sensor_id;sensor_type;location;lat;lon;timestamp;P1;durP1;ratioP1;P2;durP2;ratioP2
54259;SDS011;40172;53.022;7.012;2022-08-21T00:02:19;19.60;;;7.47;;
54259;SDS011;40172;53.022;7.012;2022-08-21T00:04:46;18.98;;;7.70;;
54259;SDS011;40172;53.022;7.012;2022-08-21T00:07:13;17.60;;;7.80;;
54259;SDS011;40172;53.022;7.012;2022-08-21T00:09:38;17.73;;;7.75;;
54259;SDS011;40172;53.022;7.012;2022-08-21T00:12:04;14.65;;;7.15;;
54259;SDS011;40172;53.022;7.012;2022-08-21T00:14:30;12.95;;;7.05;;
54259;SDS011;40172;53.022;7.012;2022-08-21T00:16:56;13.73;;;7.68;;
54259;SDS011;40172;53.022;7.012;2022-08-21T00:19:21;13.32;;;8.07;;
54259;SDS011;40172;53.022;7.012;2022-08-21T00:21:50;13.32;;;7.63;;
54259;SDS011;40172;53.022;7.012;2022-08-21T00:24:16;11.18;;;7.32;;
54259;SDS011;40172;53.022;7.012;2022-08-21T00:26:43;12.25;;;7.70;;
54259;SDS011;40172;53.022;7.012;2022-08-21T00:29:10;20.08;;;9.20;;
54259;SDS011;40172;53.022;7.012;2022-08-21T00:31:36;15.98;;;8.05;;
54259;SDS011;40172;53.022;7.012;2022-08-21T00:34:02;12.45;;;6.88;;
54259;SDS011;40172;53.022;7.012;2022-08-21T00:36:28;8.80;;;6.40;;
54259;SDS011;40172;53.022;7.012;2022-08-21T00:38:54;15.50;;;7.05;;
54259;SDS011;40172;53.022;7.012;2022-08-21T00:41:21;15.93;;;8.65;;
54259;SDS011;40172;53.022;7.012;2022-08-21T00:43:48;11.43;;;8.32;;
54259;SDS011;40172;53.022;7.012;2022-08-21T00:46:15;11.70;;;6.68;;
54259;SDS011;40172;53.022;7.012;2022-08-21T00:48:41;7.03;;;5.25;;
54259;SDS011;40172;53.022;7.012;2022-08-21T00:51:08;11.25;;;6.75;;
54259;SDS011;40172;53.022;7.012;2022-08-21T00:53:39;13.70;;;7.20;;
54259;SDS011;40172;53.022;7.012;2022-08-21T00:56:09;14.98;;;8.05;;
54259;SDS011;40172;53.022;7.012;2022-08-21T00:58:36;11.98;;;7.93;;
54259;SDS011;40172;53.022;7.012;2022-08-21T01:01:05;14.77;;;8.98;;
54259;SDS011;40172;53.022;7.012;2022-08-21T01:03:32;15.50;;;8.85;;
54259;SDS011;40172;53.022;7.012;2022-08-21T01:05:58;12.65;;;9.13;;
54259;SDS011;40172;53.022;7.012;2022-08-21T01:08:24;15.55;;;9.75;;
54259;SDS011;40172;53.022;7.012;2022-08-21T01:10:50;17.60;;;9.25;;
54259;SDS011;40172;53.022;7.012;2022-08-21T01:13:18;13.02;;;8.77;;
54259;SDS011;40172;53.022;7.012;2022-08-21T01:15:45;14.45;;;7.75;;
54259;SDS011;40172;53.022;7.012;2022-08-21T01:18:13;14.70;;;7.38;;
54259;SDS011;40172;53.022;7.012;2022-08-21T01:20:43;12.68;;;7.22;;
54259;SDS011;40172;53.022;7.012;2022-08-21T01:23:10;12.98;;;7.32;;
54259;SDS011;40172;53.022;7.012;2022-08-21T01:25:36;12.02;;;7.88;;
54259;SDS011;40172;53.022;7.012;2022-08-21T01:28:04;14.60;;;7.78;;
54259;SDS011;40172;53.022;7.012;2022-08-21T01:30:36;16.45;;;8.00;;
54259;SDS011;40172;53.022;7.012;2022-08-21T01:33:03;11.75;;;7.60;;
54259;SDS011;40172;53.022;7.012;2022-08-21T01:35:29;14.32;;;7.70;;
54259;SDS011;40172;53.022;7.012;2022-08-21T01:37:54;15.40;;;7.78;;
54259;SDS011;40172;53.022;7.012;2022-08-21T01:40:20;15.32;;;7.75;;
54259;SDS011;40172;53.022;7.012;2022-08-21T01:42:46;16.83;;;6.80;;
54259;SDS011;40172;53.022;7.012;2022-08-21T01:45:14;16.52;;;6.75;;
54259;SDS011;40172;53.022;7.012;2022-08-21T01:47:41;16.33;;;6.40;;
54259;SDS011;40172;53.022;7.012;2022-08-21T01:50:08;12.50;;;5.80;;
54259;SDS011;40172;53.022;7.012;2022-08-21T01:52:36;19.42;;;6.80;;
54259;SDS011;40172;53.022;7.012;2022-08-21T01:55:03;14.23;;;5.82;;
54259;SDS011;40172;53.022;7.012;2022-08-21T01:57:30;13.15;;;5.97;;
54259;SDS011;40172;53.022;7.012;2022-08-21T01:59:57;10.23;;;5.43;;
54259;SDS011;40172;53.022;7.012;2022-08-21T02:02:23;10.75;;;5.20;;
54259;SDS011;40172;53.022;7.012;2022-08-21T02:04:49;14.35;;;6.18;;
54259;SDS011;40172;53.022;7.012;2022-08-21T02:07:15;11.63;;;6.07;;
54259;SDS011;40172;53.022;7.012;2022-08-21T02:09:41;16.23;;;5.93;;
54259;SDS011;40172;53.022;7.012;2022-08-21T02:12:07;13.80;;;5.97;;
54259;SDS011;40172;53.022;7.012;2022-08-21T02:14:34;13.57;;;5.68;;
54259;SDS011;40172;53.022;7.012;2022-08-21T02:17:00;12.52;;;6.00;;
54259;SDS011;40172;53.022;7.012;2022-08-21T02:19:26;7.57;;;5.75;;
54259;SDS011;40172;53.022;7.012;2022-08-21T02:21:51;15.85;;;5.95;;
54259;SDS011;40172;53.022;7.012;2022-08-21T02:24:17;9.55;;;5.00;;
54259;SDS011;40172;53.022;7.012;2022-08-21T02:26:42;11.40;;;5.63;;
54259;SDS011;40172;53.022;7.012;2022-08-21T02:29:08;15.45;;;5.85;;
54259;SDS011;40172;53.022;7.012;2022-08-21T02:31:34;15.82;;;6.80;;
54259;SDS011;40172;53.022;7.012;2022-08-21T02:33:59;14.18;;;6.38;;
54259;SDS011;40172;53.022;7.012;2022-08-21T02:36:25;13.50;;;6.15;;
54259;SDS011;40172;53.022;7.012;2022-08-21T02:38:50;9.57;;;5.70;;
54259;SDS011;40172;53.022;7.012;2022-08-21T02:41:17;13.35;;;5.97;;
54259;SDS011;40172;53.022;7.012;2022-08-21T02:43:45;10.10;;;4.88;;
54259;SDS011;40172;53.022;7.012;2022-08-21T02:46:12;7.70;;;4.18;;
54259;SDS011;40172;53.022;7.012;2022-08-21T02:48:40;7.80;;;4.25;;
54259;SDS011;40172;53.022;7.012;2022-08-21T02:51:12;12.18;;;4.60;;
54259;SDS011;40172;53.022;7.012;2022-08-21T02:53:42;7.95;;;4.30;;
54259;SDS011;40172;53.022;7.012;2022-08-21T02:56:09;10.60;;;5.40;;
54259;SDS011;40172;53.022;7.012;2022-08-21T02:58:38;10.77;;;5.68;;
54259;SDS011;40172;53.022;7.012;2022-08-21T03:01:08;12.15;;;6.80;;
54259;SDS011;40172;53.022;7.012;2022-08-21T03:03:35;15.27;;;5.63;;
54259;SDS011;40172;53.022;7.012;2022-08-21T03:06:03;13.50;;;6.10;;
54259;SDS011;40172;53.022;7.012;2022-08-21T03:08:29;12.00;;;6.43;;
54259;SDS011;40172;53.022;7.012;2022-08-21T03:10:55;15.40;;;6.88;;
54259;SDS011;40172;53.022;7.012;2022-08-21T03:13:21;15.20;;;6.68;;
54259;SDS011;40172;53.022;7.012;2022-08-21T03:15:47;13.88;;;5.82;;
54259;SDS011;40172;53.022;7.012;2022-08-21T03:18:15;16.98;;;6.47;;
54259;SDS011;40172;53.022;7.012;2022-08-21T03:20:42;11.60;;;5.35;;
54259;SDS011;40172;53.022;7.012;2022-08-21T03:23:10;11.60;;;5.40;;
54259;SDS011;40172;53.022;7.012;2022-08-21T03:25:36;9.45;;;5.60;;
54259;SDS011;40172;53.022;7.012;2022-08-21T03:28:03;12.27;;;5.43;;
54259;SDS011;40172;53.022;7.012;2022-08-21T03:30:31;9.25;;;4.50;;
54259;SDS011;40172;53.022;7.012;2022-08-21T03:32:57;9.13;;;4.93;;
54259;SDS011;40172;53.022;7.012;2022-08-21T03:35:24;17.05;;;6.47;;
54259;SDS011;40172;53.022;7.012;2022-08-21T03:37:51;10.00;;;5.80;;
54259;SDS011;40172;53.022;7.012;2022-08-21T03:40:17;6.53;;;5.07;;
54259;SDS011;40172;53.022;7.012;2022-08-21T03:42:43;10.60;;;5.95;;
54259;SDS011;40172;53.022;7.012;2022-08-21T03:45:12;10.15;;;5.78;;
54259;SDS011;40172;53.022;7.012;2022-08-21T03:47:38;11.27;;;7.07;;
54259;SDS011;40172;53.022;7.012;2022-08-21T03:50:15;15.95;;;6.20;;
54259;SDS011;40172;53.022;7.012;2022-08-21T03:52:42;12.50;;;5.72;;
54259;SDS011;40172;53.022;7.012;2022-08-21T03:55:07;10.63;;;4.82;;
54259;SDS011;40172;53.022;7.012;2022-08-21T03:57:33;15.73;;;8.10;;
54259;SDS011;40172;53.022;7.012;2022-08-21T03:59:59;15.68;;;8.50;;
54259;SDS011;40172;53.022;7.012;2022-08-21T04:02:24;19.05;;;8.95;;
54259;SDS011;40172;53.022;7.012;2022-08-21T04:04:50;20.08;;;8.85;;
54259;SDS011;40172;53.022;7.012;2022-08-21T04:07:15;14.38;;;8.82;;
54259;SDS011;40172;53.022;7.012;2022-08-21T04:09:42;19.40;;;9.68;;
54259;SDS011;40172;53.022;7.012;2022-08-21T04:12:08;18.77;;;9.75;;
54259;SDS011;40172;53.022;7.012;2022-08-21T04:14:34;14.82;;;8.48;;
54259;SDS011;40172;53.022;7.012;2022-08-21T04:16:59;13.73;;;8.13;;
54259;SDS011;40172;53.022;7.012;2022-08-21T04:19:26;16.63;;;8.30;;
54259;SDS011;40172;53.022;7.012;2022-08-21T04:21:51;17.08;;;8.00;;
54259;SDS011;40172;53.022;7.012;2022-08-21T04:24:17;18.88;;;8.45;;
54259;SDS011;40172;53.022;7.012;2022-08-21T04:26:44;15.57;;;8.00;;
54259;SDS011;40172;53.022;7.012;2022-08-21T04:29:09;18.85;;;9.15;;
54259;SDS011;40172;53.022;7.012;2022-08-21T04:31:35;19.85;;;10.13;;
54259;SDS011;40172;53.022;7.012;2022-08-21T04:34:02;18.38;;;10.73;;
54259;SDS011;40172;53.022;7.012;2022-08-21T04:36:29;21.08;;;10.88;;
54259;SDS011;40172;53.022;7.012;2022-08-21T04:38:56;19.75;;;10.98;;
54259;SDS011;40172;53.022;7.012;2022-08-21T04:41:21;21.15;;;12.32;;
54259;SDS011;40172;53.022;7.012;2022-08-21T04:43:47;20.77;;;11.30;;
54259;SDS011;40172;53.022;7.012;2022-08-21T04:46:12;20.88;;;11.93;;
54259;SDS011;40172;53.022;7.012;2022-08-21T04:48:38;21.77;;;11.70;;
54259;SDS011;40172;53.022;7.012;2022-08-21T04:53:43;17.88;;;9.77;;
54259;SDS011;40172;53.022;7.012;2022-08-21T04:56:15;18.27;;;10.57;;
54259;SDS011;40172;53.022;7.012;2022-08-21T04:58:48;17.25;;;11.55;;
54259;SDS011;40172;53.022;7.012;2022-08-21T05:01:19;19.02;;;11.52;;
54259;SDS011;40172;53.022;7.012;2022-08-21T05:03:47;18.02;;;11.80;;
54259;SDS011;40172;53.022;7.012;2022-08-21T05:06:15;18.58;;;11.95;;
54259;SDS011;40172;53.022;7.012;2022-08-21T05:08:41;16.92;;;11.82;;
54259;SDS011;40172;53.022;7.012;2022-08-21T05:11:10;17.00;;;11.07;;
54259;SDS011;40172;53.022;7.012;2022-08-21T05:13:36;16.13;;;11.27;;
54259;SDS011;40172;53.022;7.012;2022-08-21T05:16:02;16.23;;;10.90;;
54259;SDS011;40172;53.022;7.012;2022-08-21T05:18:27;18.25;;;11.10;;
54259;SDS011;40172;53.022;7.012;2022-08-21T05:20:53;15.88;;;11.60;;
54259;SDS011;40172;53.022;7.012;2022-08-21T05:23:19;20.65;;;11.32;;
54259;SDS011;40172;53.022;7.012;2022-08-21T05:25:44;18.30;;;12.10;;
54259;SDS011;40172;53.022;7.012;2022-08-21T05:28:10;21.63;;;12.02;;
54259;SDS011;40172;53.022;7.012;2022-08-21T05:30:36;21.00;;;12.93;;
54259;SDS011;40172;53.022;7.012;2022-08-21T05:33:03;19.90;;;12.82;;
54259;SDS011;40172;53.022;7.012;2022-08-21T05:35:31;19.70;;;12.98;;
54259;SDS011;40172;53.022;7.012;2022-08-21T05:37:57;21.35;;;12.48;;
54259;SDS011;40172;53.022;7.012;2022-08-21T05:40:24;20.30;;;11.65;;
54259;SDS011;40172;53.022;7.012;2022-08-21T05:42:51;19.60;;;11.57;;
54259;SDS011;40172;53.022;7.012;2022-08-21T05:45:18;15.50;;;11.45;;
54259;SDS011;40172;53.022;7.012;2022-08-21T05:47:44;19.13;;;11.65;;
54259;SDS011;40172;53.022;7.012;2022-08-21T05:50:09;18.95;;;11.10;;
54259;SDS011;40172;53.022;7.012;2022-08-21T05:52:35;16.88;;;11.13;;
54259;SDS011;40172;53.022;7.012;2022-08-21T05:55:01;17.58;;;10.98;;
54259;SDS011;40172;53.022;7.012;2022-08-21T05:57:26;16.92;;;10.50;;
54259;SDS011;40172;53.022;7.012;2022-08-21T05:59:52;13.68;;;9.48;;
54259;SDS011;40172;53.022;7.012;2022-08-21T06:02:18;17.70;;;10.05;;
54259;SDS011;40172;53.022;7.012;2022-08-21T06:04:45;15.80;;;9.23;;
54259;SDS011;40172;53.022;7.012;2022-08-21T06:07:11;15.07;;;9.48;;
54259;SDS011;40172;53.022;7.012;2022-08-21T06:09:37;17.23;;;9.77;;
54259;SDS011;40172;53.022;7.012;2022-08-21T06:12:12;16.98;;;8.98;;
54259;SDS011;40172;53.022;7.012;2022-08-21T06:14:38;12.25;;;8.07;;
54259;SDS011;40172;53.022;7.012;2022-08-21T06:17:06;14.65;;;8.40;;
54259;SDS011;40172;53.022;7.012;2022-08-21T06:19:33;13.57;;;7.75;;
54259;SDS011;40172;53.022;7.012;2022-08-21T06:21:59;14.70;;;7.60;;
54259;SDS011;40172;53.022;7.012;2022-08-21T06:24:25;14.55;;;7.28;;
54259;SDS011;40172;53.022;7.012;2022-08-21T06:26:51;12.63;;;6.93;;
54259;SDS011;40172;53.022;7.012;2022-08-21T06:29:18;15.18;;;7.30;;
54259;SDS011;40172;53.022;7.012;2022-08-21T06:31:45;14.15;;;6.68;;
54259;SDS011;40172;53.022;7.012;2022-08-21T06:34:11;12.50;;;6.50;;
54259;SDS011;40172;53.022;7.012;2022-08-21T06:36:37;11.85;;;5.75;;
54259;SDS011;40172;53.022;7.012;2022-08-21T06:39:03;14.35;;;6.05;;
54259;SDS011;40172;53.022;7.012;2022-08-21T06:41:29;11.55;;;5.25;;
54259;SDS011;40172;53.022;7.012;2022-08-21T06:43:55;16.25;;;5.97;;
54259;SDS011;40172;53.022;7.012;2022-08-21T06:46:22;10.68;;;5.28;;
54259;SDS011;40172;53.022;7.012;2022-08-21T06:48:48;12.88;;;5.68;;
54259;SDS011;40172;53.022;7.012;2022-08-21T06:51:14;12.75;;;5.68;;
54259;SDS011;40172;53.022;7.012;2022-08-21T06:53:40;14.63;;;6.00;;
54259;SDS011;40172;53.022;7.012;2022-08-21T06:56:05;11.68;;;4.97;;
54259;SDS011;40172;53.022;7.012;2022-08-21T06:58:31;10.90;;;5.10;;
54259;SDS011;40172;53.022;7.012;2022-08-21T07:00:57;12.50;;;5.43;;
54259;SDS011;40172;53.022;7.012;2022-08-21T07:03:27;11.90;;;6.15;;
54259;SDS011;40172;53.022;7.012;2022-08-21T07:05:57;12.00;;;5.85;;
54259;SDS011;40172;53.022;7.012;2022-08-21T07:08:23;13.43;;;5.78;;
54259;SDS011;40172;53.022;7.012;2022-08-21T07:10:53;11.18;;;4.97;;
54259;SDS011;40172;53.022;7.012;2022-08-21T07:13:21;16.65;;;5.50;;
54259;SDS011;40172;53.022;7.012;2022-08-21T07:15:47;11.63;;;5.00;;
54259;SDS011;40172;53.022;7.012;2022-08-21T07:18:13;13.20;;;5.35;;
54259;SDS011;40172;53.022;7.012;2022-08-21T07:20:40;13.32;;;5.35;;
54259;SDS011;40172;53.022;7.012;2022-08-21T07:23:08;14.18;;;5.30;;
54259;SDS011;40172;53.022;7.012;2022-08-21T07:25:36;16.58;;;5.53;;
54259;SDS011;40172;53.022;7.012;2022-08-21T07:28:02;13.88;;;5.32;;
54259;SDS011;40172;53.022;7.012;2022-08-21T07:30:28;17.00;;;4.70;;
54259;SDS011;40172;53.022;7.012;2022-08-21T07:32:54;17.67;;;4.97;;
54259;SDS011;40172;53.022;7.012;2022-08-21T07:35:20;12.40;;;4.57;;
54259;SDS011;40172;53.022;7.012;2022-08-21T07:37:47;11.77;;;3.83;;
54259;SDS011;40172;53.022;7.012;2022-08-21T07:40:14;12.00;;;4.20;;
54259;SDS011;40172;53.022;7.012;2022-08-21T07:42:41;13.55;;;4.20;;
54259;SDS011;40172;53.022;7.012;2022-08-21T07:45:12;12.45;;;4.20;;
54259;SDS011;40172;53.022;7.012;2022-08-21T07:47:38;13.60;;;3.58;;
54259;SDS011;40172;53.022;7.012;2022-08-21T07:50:05;12.05;;;3.90;;
54259;SDS011;40172;53.022;7.012;2022-08-21T07:52:31;12.65;;;3.33;;
54259;SDS011;40172;53.022;7.012;2022-08-21T07:54:57;17.27;;;3.38;;
54259;SDS011;40172;53.022;7.012;2022-08-21T07:57:23;17.23;;;3.28;;
54259;SDS011;40172;53.022;7.012;2022-08-21T07:59:48;10.75;;;3.03;;
54259;SDS011;40172;53.022;7.012;2022-08-21T08:02:25;12.27;;;3.42;;
54259;SDS011;40172;53.022;7.012;2022-08-21T08:04:58;10.50;;;3.08;;
54259;SDS011;40172;53.022;7.012;2022-08-21T08:07:24;11.98;;;2.97;;
54259;SDS011;40172;53.022;7.012;2022-08-21T08:09:51;11.32;;;3.28;;
54259;SDS011;40172;53.022;7.012;2022-08-21T08:12:16;9.05;;;3.00;;
54259;SDS011;40172;53.022;7.012;2022-08-21T08:14:43;11.07;;;2.75;;
54259;SDS011;40172;53.022;7.012;2022-08-21T08:17:09;11.80;;;2.72;;
54259;SDS011;40172;53.022;7.012;2022-08-21T08:19:35;12.77;;;2.90;;
54259;SDS011;40172;53.022;7.012;2022-08-21T08:22:00;13.02;;;2.42;;
54259;SDS011;40172;53.022;7.012;2022-08-21T08:24:26;10.43;;;2.78;;
54259;SDS011;40172;53.022;7.012;2022-08-21T08:26:52;10.00;;;2.63;;
54259;SDS011;40172;53.022;7.012;2022-08-21T08:29:19;8.90;;;2.47;;
54259;SDS011;40172;53.022;7.012;2022-08-21T08:31:45;11.85;;;2.72;;
54259;SDS011;40172;53.022;7.012;2022-08-21T08:34:11;8.73;;;2.67;;
54259;SDS011;40172;53.022;7.012;2022-08-21T08:36:37;7.43;;;2.20;;
54259;SDS011;40172;53.022;7.012;2022-08-21T08:39:03;8.32;;;2.45;;
54259;SDS011;40172;53.022;7.012;2022-08-21T08:41:30;7.50;;;2.08;;
54259;SDS011;40172;53.022;7.012;2022-08-21T08:44:06;10.70;;;2.83;;
54259;SDS011;40172;53.022;7.012;2022-08-21T08:46:40;11.57;;;2.50;;
54259;SDS011;40172;53.022;7.012;2022-08-21T08:51:54;8.50;;;2.67;;
54259;SDS011;40172;53.022;7.012;2022-08-21T08:54:47;10.80;;;2.50;;
54259;SDS011;40172;53.022;7.012;2022-08-21T08:57:17;8.07;;;2.30;;
54259;SDS011;40172;53.022;7.012;2022-08-21T08:59:49;9.20;;;2.40;;
54259;SDS011;40172;53.022;7.012;2022-08-21T09:02:17;10.45;;;2.40;;
54259;SDS011;40172;53.022;7.012;2022-08-21T09:04:45;9.63;;;2.72;;
54259;SDS011;40172;53.022;7.012;2022-08-21T09:15:32;9.45;;;2.80;;
54259;SDS011;40172;53.022;7.012;2022-08-21T09:18:09;8.25;;;2.33;;
54259;SDS011;40172;53.022;7.012;2022-08-21T09:26:45;17.52;;;3.00;;
54259;SDS011;40172;53.022;7.012;2022-08-21T09:29:25;14.65;;;2.92;;
54259;SDS011;40172;53.022;7.012;2022-08-21T09:31:54;8.45;;;2.47;;
54259;SDS011;40172;53.022;7.012;2022-08-21T09:34:27;13.98;;;2.88;;
54259;SDS011;40172;53.022;7.012;2022-08-21T09:36:56;16.48;;;2.35;;
54259;SDS011;40172;53.022;7.012;2022-08-21T09:39:30;8.52;;;2.63;;
54259;SDS011;40172;53.022;7.012;2022-08-21T09:42:03;10.43;;;2.65;;
54259;SDS011;40172;53.022;7.012;2022-08-21T09:44:36;10.93;;;2.65;;
54259;SDS011;40172;53.022;7.012;2022-08-21T09:47:05;6.80;;;2.20;;
54259;SDS011;40172;53.022;7.012;2022-08-21T09:49:34;10.75;;;2.45;;
54259;SDS011;40172;53.022;7.012;2022-08-21T09:52:02;8.05;;;2.08;;
54259;SDS011;40172;53.022;7.012;2022-08-21T09:54:39;6.80;;;2.47;;
54259;SDS011;40172;53.022;7.012;2022-08-21T09:59:53;6.47;;;1.95;;
54259;SDS011;40172;53.022;7.012;2022-08-21T10:04:57;8.40;;;1.90;;
54259;SDS011;40172;53.022;7.012;2022-08-21T10:07:26;9.48;;;2.50;;
54259;SDS011;40172;53.022;7.012;2022-08-21T10:10:02;9.18;;;2.58;;
54259;SDS011;40172;53.022;7.012;2022-08-21T10:12:54;6.88;;;2.17;;
54259;SDS011;40172;53.022;7.012;2022-08-21T10:18:30;9.65;;;2.42;;
54259;SDS011;40172;53.022;7.012;2022-08-21T10:24:01;10.15;;;2.58;;
54259;SDS011;40172;53.022;7.012;2022-08-21T10:27:03;7.30;;;2.42;;
54259;SDS011;40172;53.022;7.012;2022-08-21T10:29:45;7.35;;;2.30;;
54259;SDS011;40172;53.022;7.012;2022-08-21T10:43:00;6.72;;;2.00;;
54259;SDS011;40172;53.022;7.012;2022-08-21T10:45:40;9.93;;;2.10;;
54259;SDS011;40172;53.022;7.012;2022-08-21T10:48:35;6.72;;;1.90;;
54259;SDS011;40172;53.022;7.012;2022-08-21T10:51:35;9.35;;;1.98;;
54259;SDS011;40172;53.022;7.012;2022-08-21T10:54:15;6.80;;;1.80;;
54259;SDS011;40172;53.022;7.012;2022-08-21T10:56:58;7.70;;;1.80;;
54259;SDS011;40172;53.022;7.012;2022-08-21T10:59:41;8.25;;;2.42;;
54259;SDS011;40172;53.022;7.012;2022-08-21T11:02:17;6.65;;;1.98;;
54259;SDS011;40172;53.022;7.012;2022-08-21T11:10:13;6.25;;;1.80;;
54259;SDS011;40172;53.022;7.012;2022-08-21T11:13:01;8.27;;;2.00;;
54259;SDS011;40172;53.022;7.012;2022-08-21T11:18:23;8.63;;;2.05;;
54259;SDS011;40172;53.022;7.012;2022-08-21T11:21:26;6.85;;;1.65;;
54259;SDS011;40172;53.022;7.012;2022-08-21T11:29:40;9.63;;;2.20;;
54259;SDS011;40172;53.022;7.012;2022-08-21T11:43:45;7.53;;;2.10;;
54259;SDS011;40172;53.022;7.012;2022-08-21T11:46:17;11.43;;;2.05;;
54259;SDS011;40172;53.022;7.012;2022-08-21T11:51:20;5.22;;;1.73;;
54259;SDS011;40172;53.022;7.012;2022-08-21T11:54:06;8.70;;;1.95;;
54259;SDS011;40172;53.022;7.012;2022-08-21T11:57:01;5.40;;;1.77;;
54259;SDS011;40172;53.022;7.012;2022-08-21T11:59:40;5.72;;;1.80;;
54259;SDS011;40172;53.022;7.012;2022-08-21T12:02:19;7.05;;;2.30;;
54259;SDS011;40172;53.022;7.012;2022-08-21T12:04:49;3.78;;;1.55;;
54259;SDS011;40172;53.022;7.012;2022-08-21T12:07:32;7.57;;;1.40;;
54259;SDS011;40172;53.022;7.012;2022-08-21T12:10:09;6.65;;;1.80;;
54259;SDS011;40172;53.022;7.012;2022-08-21T12:12:41;6.05;;;1.58;;
54259;SDS011;40172;53.022;7.012;2022-08-21T12:26:20;6.55;;;1.85;;
54259;SDS011;40172;53.022;7.012;2022-08-21T12:28:47;5.38;;;1.42;;
54259;SDS011;40172;53.022;7.012;2022-08-21T12:31:20;5.38;;;1.50;;
54259;SDS011;40172;53.022;7.012;2022-08-21T12:33:54;5.70;;;1.40;;
54259;SDS011;40172;53.022;7.012;2022-08-21T12:36:39;5.50;;;1.50;;
54259;SDS011;40172;53.022;7.012;2022-08-21T12:39:25;8.07;;;1.98;;
54259;SDS011;40172;53.022;7.012;2022-08-21T12:44:46;6.35;;;1.60;;
54259;SDS011;40172;53.022;7.012;2022-08-21T12:47:36;5.03;;;1.48;;
54259;SDS011;40172;53.022;7.012;2022-08-21T12:50:42;11.02;;;2.00;;
54259;SDS011;40172;53.022;7.012;2022-08-21T12:53:31;6.95;;;1.60;;
54259;SDS011;40172;53.022;7.012;2022-08-21T12:56:07;7.03;;;1.65;;
54259;SDS011;40172;53.022;7.012;2022-08-21T12:58:34;6.25;;;1.58;;
54259;SDS011;40172;53.022;7.012;2022-08-21T13:01:05;6.70;;;1.80;;
54259;SDS011;40172;53.022;7.012;2022-08-21T13:03:41;5.07;;;1.67;;
54259;SDS011;40172;53.022;7.012;2022-08-21T13:06:12;7.95;;;1.77;;
54259;SDS011;40172;53.022;7.012;2022-08-21T13:08:41;8.75;;;1.65;;
54259;SDS011;40172;53.022;7.012;2022-08-21T13:11:09;8.55;;;2.03;;
54259;SDS011;40172;53.022;7.012;2022-08-21T13:13:36;7.05;;;2.10;;
54259;SDS011;40172;53.022;7.012;2022-08-21T13:16:04;7.28;;;2.00;;
54259;SDS011;40172;53.022;7.012;2022-08-21T13:18:33;8.27;;;1.98;;
54259;SDS011;40172;53.022;7.012;2022-08-21T13:21:07;6.82;;;2.10;;
54259;SDS011;40172;53.022;7.012;2022-08-21T13:23:36;5.55;;;2.00;;
54259;SDS011;40172;53.022;7.012;2022-08-21T13:26:11;7.60;;;2.05;;
54259;SDS011;40172;53.022;7.012;2022-08-21T13:28:42;6.38;;;1.88;;
54259;SDS011;40172;53.022;7.012;2022-08-21T13:31:09;5.25;;;1.67;;
54259;SDS011;40172;53.022;7.012;2022-08-21T13:33:35;11.07;;;2.40;;
54259;SDS011;40172;53.022;7.012;2022-08-21T13:36:04;6.97;;;1.88;;
54259;SDS011;40172;53.022;7.012;2022-08-21T13:38:33;5.65;;;1.73;;
54259;SDS011;40172;53.022;7.012;2022-08-21T13:41:04;5.47;;;1.80;;
54259;SDS011;40172;53.022;7.012;2022-08-21T13:43:49;6.95;;;1.92;;
54259;SDS011;40172;53.022;7.012;2022-08-21T13:46:26;10.18;;;2.20;;
54259;SDS011;40172;53.022;7.012;2022-08-21T13:48:56;11.80;;;2.28;;
54259;SDS011;40172;53.022;7.012;2022-08-21T13:51:24;13.50;;;2.60;;
54259;SDS011;40172;53.022;7.012;2022-08-21T13:53:51;11.50;;;1.95;;
54259;SDS011;40172;53.022;7.012;2022-08-21T13:56:32;12.25;;;2.70;;
54259;SDS011;40172;53.022;7.012;2022-08-21T13:59:07;11.48;;;2.92;;
54259;SDS011;40172;53.022;7.012;2022-08-21T14:01:34;7.40;;;2.25;;
54259;SDS011;40172;53.022;7.012;2022-08-21T14:04:23;10.18;;;2.50;;
54259;SDS011;40172;53.022;7.012;2022-08-21T14:06:52;10.35;;;2.65;;
54259;SDS011;40172;53.022;7.012;2022-08-21T14:11:50;15.52;;;3.35;;
54259;SDS011;40172;53.022;7.012;2022-08-21T14:14:22;13.73;;;3.13;;
54259;SDS011;40172;53.022;7.012;2022-08-21T14:16:58;11.30;;;3.10;;
54259;SDS011;40172;53.022;7.012;2022-08-21T14:20:02;12.15;;;3.00;;
54259;SDS011;40172;53.022;7.012;2022-08-21T14:25:07;10.38;;;2.95;;
54259;SDS011;40172;53.022;7.012;2022-08-21T14:31:18;12.23;;;2.60;;
54259;SDS011;40172;53.022;7.012;2022-08-21T14:33:46;11.40;;;2.22;;
54259;SDS011;40172;53.022;7.012;2022-08-21T14:36:12;10.05;;;2.47;;
54259;SDS011;40172;53.022;7.012;2022-08-21T14:38:39;10.52;;;2.72;;
54259;SDS011;40172;53.022;7.012;2022-08-21T14:41:21;10.32;;;2.47;;
54259;SDS011;40172;53.022;7.012;2022-08-21T14:43:49;7.60;;;2.25;;
54259;SDS011;40172;53.022;7.012;2022-08-21T14:46:26;6.57;;;2.20;;
54259;SDS011;40172;53.022;7.012;2022-08-21T14:48:53;10.23;;;2.22;;
54259;SDS011;40172;53.022;7.012;2022-08-21T14:51:19;6.57;;;2.28;;
54259;SDS011;40172;53.022;7.012;2022-08-21T14:53:44;10.25;;;2.63;;
54259;SDS011;40172;53.022;7.012;2022-08-21T14:56:11;7.75;;;2.78;;
54259;SDS011;40172;53.022;7.012;2022-08-21T14:58:39;8.60;;;2.30;;
54259;SDS011;40172;53.022;7.012;2022-08-21T15:01:06;6.80;;;2.05;;
54259;SDS011;40172;53.022;7.012;2022-08-21T15:03:33;8.32;;;2.42;;
54259;SDS011;40172;53.022;7.012;2022-08-21T15:05:59;6.15;;;1.70;;
54259;SDS011;40172;53.022;7.012;2022-08-21T15:08:25;7.70;;;1.90;;
54259;SDS011;40172;53.022;7.012;2022-08-21T15:10:52;5.78;;;1.90;;
54259;SDS011;40172;53.022;7.012;2022-08-21T15:13:18;5.88;;;1.77;;
54259;SDS011;40172;53.022;7.012;2022-08-21T15:15:45;7.07;;;2.25;;
54259;SDS011;40172;53.022;7.012;2022-08-21T15:18:13;8.50;;;2.60;;
54259;SDS011;40172;53.022;7.012;2022-08-21T15:20:39;8.05;;;2.10;;
54259;SDS011;40172;53.022;7.012;2022-08-21T15:23:05;6.18;;;1.90;;
54259;SDS011;40172;53.022;7.012;2022-08-21T15:25:31;6.30;;;2.13;;
54259;SDS011;40172;53.022;7.012;2022-08-21T15:27:59;6.57;;;1.90;;
54259;SDS011;40172;53.022;7.012;2022-08-21T15:30:26;7.65;;;1.90;;
54259;SDS011;40172;53.022;7.012;2022-08-21T15:32:52;8.68;;;2.25;;
54259;SDS011;40172;53.022;7.012;2022-08-21T15:35:17;7.22;;;2.22;;
54259;SDS011;40172;53.022;7.012;2022-08-21T15:37:43;7.78;;;2.28;;
54259;SDS011;40172;53.022;7.012;2022-08-21T15:40:09;8.48;;;2.42;;
54259;SDS011;40172;53.022;7.012;2022-08-21T15:42:35;5.85;;;1.92;;
54259;SDS011;40172;53.022;7.012;2022-08-21T15:45:03;10.63;;;2.00;;
54259;SDS011;40172;53.022;7.012;2022-08-21T15:47:31;7.28;;;1.88;;
54259;SDS011;40172;53.022;7.012;2022-08-21T15:49:59;9.00;;;2.50;;
54259;SDS011;40172;53.022;7.012;2022-08-21T15:52:25;8.43;;;2.20;;
54259;SDS011;40172;53.022;7.012;2022-08-21T15:54:51;8.75;;;2.30;;
54259;SDS011;40172;53.022;7.012;2022-08-21T15:57:18;9.85;;;1.85;;
54259;SDS011;40172;53.022;7.012;2022-08-21T15:59:50;11.63;;;2.00;;
54259;SDS011;40172;53.022;7.012;2022-08-21T16:02:19;9.00;;;2.03;;
54259;SDS011;40172;53.022;7.012;2022-08-21T16:04:48;10.05;;;2.17;;
54259;SDS011;40172;53.022;7.012;2022-08-21T16:07:13;8.15;;;2.40;;
54259;SDS011;40172;53.022;7.012;2022-08-21T16:09:40;8.98;;;2.25;;
54259;SDS011;40172;53.022;7.012;2022-08-21T16:12:06;10.40;;;2.28;;
54259;SDS011;40172;53.022;7.012;2022-08-21T16:14:33;14.88;;;2.53;;
54259;SDS011;40172;53.022;7.012;2022-08-21T16:17:02;9.02;;;2.53;;
54259;SDS011;40172;53.022;7.012;2022-08-21T16:19:29;12.00;;;2.63;;
54259;SDS011;40172;53.022;7.012;2022-08-21T16:21:55;12.38;;;2.58;;
54259;SDS011;40172;53.022;7.012;2022-08-21T16:24:21;9.07;;;2.00;;